createdAt,value
2017-09-24T00:00:39.353Z,0
2017-09-24T00:01:19.892Z,0
2017-09-24T00:02:00.425Z,0
2017-09-24T00:02:40.963Z,0
2017-09-24T00:03:21.496Z,0
2017-09-24T00:04:02.031Z,0
2017-09-24T00:04:42.564Z,0
2017-09-24T00:05:23.096Z,0
2017-09-24T00:06:03.660Z,0
2017-09-24T00:06:44.182Z,0
2017-09-24T00:07:24.712Z,0
2017-09-24T00:08:05.242Z,0
2017-09-24T00:08:45.784Z,0
2017-09-24T00:09:26.319Z,0
2017-09-24T00:10:06.851Z,0
2017-09-24T00:10:47.381Z,0
2017-09-24T00:11:27.913Z,0
2017-09-24T00:12:08.470Z,0
2017-09-24T00:12:49.002Z,0
2017-09-24T00:13:29.535Z,0
2017-09-24T00:14:10.068Z,0
2017-09-24T00:14:50.605Z,0
2017-09-24T00:15:31.146Z,0
2017-09-24T00:16:11.689Z,0
2017-09-24T00:16:52.224Z,0
2017-09-24T00:17:32.764Z,0
2017-09-24T00:18:13.301Z,0
2017-09-24T00:18:53.844Z,0
2017-09-24T00:19:34.377Z,0
2017-09-24T00:20:14.912Z,0
2017-09-24T00:20:55.449Z,0
2017-09-24T00:21:35.983Z,0
2017-09-24T00:22:16.544Z,0
2017-09-24T00:22:57.072Z,0
2017-09-24T00:23:37.606Z,0
2017-09-24T00:24:18.148Z,0
2017-09-24T00:24:58.675Z,0
2017-09-24T00:25:39.239Z,0
2017-09-24T00:26:19.780Z,0
2017-09-24T00:27:00.316Z,0
2017-09-24T00:27:40.845Z,0
2017-09-24T00:28:21.406Z,0
2017-09-24T00:29:01.918Z,0
2017-09-24T00:29:42.451Z,0
2017-09-24T00:30:22.993Z,0
2017-09-24T00:31:03.520Z,0
2017-09-24T00:31:44.051Z,0
2017-09-24T00:32:24.597Z,0
2017-09-24T00:33:05.126Z,0
2017-09-24T00:33:45.656Z,0
2017-09-24T00:34:26.193Z,0
2017-09-24T00:35:06.725Z,0
2017-09-24T00:35:47.260Z,0
2017-09-24T00:36:27.816Z,0
2017-09-24T00:37:08.323Z,0
2017-09-24T00:37:48.858Z,0
2017-09-24T00:38:29.395Z,0
2017-09-24T00:39:09.937Z,0
2017-09-24T00:39:50.476Z,0
2017-09-24T00:40:31.006Z,0
2017-09-24T00:41:11.532Z,0
2017-09-24T00:41:52.931Z,0
2017-09-24T00:43:52.074Z,0
2017-09-24T00:44:32.614Z,0
2017-09-24T00:45:13.143Z,0
2017-09-24T00:45:53.670Z,0
2017-09-24T00:46:34.206Z,0
2017-09-24T00:47:14.738Z,0
2017-09-24T00:47:55.278Z,0
2017-09-24T00:48:35.810Z,0
2017-09-24T00:49:16.345Z,0
2017-09-24T00:49:56.876Z,0
2017-09-24T00:50:37.414Z,0
2017-09-24T00:51:17.953Z,0
2017-09-24T00:51:58.486Z,0
2017-09-24T00:52:39.011Z,0
2017-09-24T00:53:19.545Z,0
2017-09-24T00:54:00.080Z,0
2017-09-24T00:54:40.611Z,0
2017-09-24T00:55:21.140Z,0
2017-09-24T00:56:01.670Z,0
2017-09-24T00:56:42.198Z,0
2017-09-24T00:57:22.729Z,0
2017-09-24T00:58:03.262Z,0
2017-09-24T00:58:43.795Z,0
2017-09-24T00:59:24.335Z,0
2017-09-24T01:00:04.874Z,0
2017-09-24T01:00:45.403Z,0
2017-09-24T01:01:25.934Z,0
2017-09-24T01:02:06.463Z,0
2017-09-24T01:02:46.992Z,0
2017-09-24T01:03:27.526Z,0
2017-09-24T01:04:08.059Z,0
2017-09-24T01:04:48.593Z,0
2017-09-24T01:05:29.126Z,0
2017-09-24T01:06:09.655Z,0
2017-09-24T01:06:50.192Z,0
2017-09-24T01:07:30.728Z,0
2017-09-24T01:08:11.260Z,0
2017-09-24T01:08:51.790Z,0
2017-09-24T01:09:32.326Z,0
2017-09-24T01:10:12.860Z,0
2017-09-24T01:10:53.396Z,0
2017-09-24T01:11:33.926Z,0
2017-09-24T01:12:14.461Z,0
2017-09-24T01:12:54.996Z,0
2017-09-24T01:13:35.524Z,0
2017-09-24T01:14:16.058Z,0
2017-09-24T01:14:56.583Z,0
2017-09-24T01:15:37.115Z,0
2017-09-24T01:16:17.642Z,0
2017-09-24T01:16:58.172Z,0
2017-09-24T01:17:38.704Z,0
2017-09-24T01:18:19.230Z,0
2017-09-24T01:18:59.752Z,0
2017-09-24T01:19:40.284Z,0
2017-09-24T01:20:20.809Z,0
2017-09-24T01:21:01.344Z,0
2017-09-24T01:21:41.878Z,0
2017-09-24T01:22:22.416Z,0
2017-09-24T01:23:02.946Z,0
2017-09-24T01:23:43.474Z,0
2017-09-24T01:24:24.002Z,0
2017-09-24T01:25:04.536Z,0
2017-09-24T01:25:45.062Z,0
2017-09-24T01:26:25.592Z,0
2017-09-24T01:27:06.126Z,0
2017-09-24T01:27:46.659Z,0
2017-09-24T01:28:27.185Z,0
2017-09-24T01:29:07.712Z,0
2017-09-24T01:29:48.236Z,0
2017-09-24T01:30:28.769Z,0
2017-09-24T01:31:09.306Z,0
2017-09-24T01:31:49.842Z,0
2017-09-24T01:32:30.360Z,0
2017-09-24T01:33:10.883Z,0
2017-09-24T01:33:51.414Z,0
2017-09-24T01:34:31.984Z,0
2017-09-24T01:35:12.512Z,0
2017-09-24T01:35:53.036Z,0
2017-09-24T01:36:33.560Z,0
2017-09-24T01:37:14.087Z,0
2017-09-24T01:37:54.606Z,0
2017-09-24T01:38:35.146Z,0
2017-09-24T01:39:15.678Z,0
2017-09-24T01:39:56.215Z,0
2017-09-24T01:40:36.740Z,0
2017-09-24T01:41:17.263Z,0
2017-09-24T01:42:04.580Z,0
2017-09-24T01:42:45.109Z,0
2017-09-24T01:43:25.641Z,0
2017-09-24T01:44:06.176Z,0
2017-09-24T01:44:46.694Z,0
2017-09-24T01:45:27.227Z,0
2017-09-24T01:46:07.761Z,0
2017-09-24T01:46:48.290Z,0
2017-09-24T01:47:28.823Z,0
2017-09-24T01:48:09.360Z,0
2017-09-24T01:48:49.888Z,0
2017-09-24T01:49:30.418Z,0
2017-09-24T01:50:10.950Z,0
2017-09-24T01:50:51.480Z,0
2017-09-24T01:51:32.009Z,0
2017-09-24T01:52:12.539Z,0
2017-09-24T01:52:53.077Z,0
2017-09-24T01:53:33.610Z,0
2017-09-24T01:54:14.149Z,0
2017-09-24T01:54:54.679Z,0
2017-09-24T01:55:35.211Z,0
2017-09-24T01:56:15.737Z,0
2017-09-24T01:56:56.268Z,0
2017-09-24T01:57:36.796Z,0
2017-09-24T01:58:17.330Z,0
2017-09-24T01:58:57.857Z,0
2017-09-24T01:59:38.389Z,0
2017-09-24T02:00:18.918Z,0
2017-09-24T02:00:59.450Z,0
2017-09-24T02:01:39.978Z,0
2017-09-24T02:02:20.514Z,0
2017-09-24T02:03:01.047Z,0
2017-09-24T02:03:41.569Z,0
2017-09-24T02:04:22.103Z,0
2017-09-24T02:05:02.642Z,0
2017-09-24T02:05:43.174Z,0
2017-09-24T02:06:23.709Z,0
2017-09-24T02:07:04.240Z,0
2017-09-24T02:07:44.767Z,0
2017-09-24T02:08:25.310Z,0
2017-09-24T02:09:05.841Z,0
2017-09-24T02:09:46.363Z,0
2017-09-24T02:10:26.896Z,0
2017-09-24T02:11:07.433Z,0
2017-09-24T02:11:47.969Z,0
2017-09-24T02:12:28.505Z,0
2017-09-24T02:13:09.038Z,0
2017-09-24T02:13:49.569Z,0
2017-09-24T02:14:30.100Z,0
2017-09-24T02:15:10.631Z,0
2017-09-24T02:15:51.169Z,0
2017-09-24T02:16:31.701Z,0
2017-09-24T02:17:12.241Z,0
2017-09-24T02:17:52.769Z,0
2017-09-24T02:18:33.304Z,0
2017-09-24T02:19:13.840Z,0
2017-09-24T02:19:54.366Z,0
2017-09-24T02:20:34.893Z,0
2017-09-24T02:21:15.429Z,0
2017-09-24T02:21:55.944Z,0
2017-09-24T02:22:36.476Z,0
2017-09-24T02:23:16.995Z,0
2017-09-24T02:23:57.572Z,0
2017-09-24T02:25:56.709Z,0
2017-09-24T02:26:37.245Z,0
2017-09-24T02:27:17.778Z,0
2017-09-24T02:27:58.311Z,0
2017-09-24T02:28:38.842Z,0
2017-09-24T02:29:19.377Z,0
2017-09-24T02:29:59.905Z,0
2017-09-24T02:30:40.439Z,0
2017-09-24T02:31:20.964Z,0
2017-09-24T02:32:01.495Z,0
2017-09-24T02:32:42.020Z,0
2017-09-24T02:33:22.552Z,0
2017-09-24T02:34:03.085Z,0
2017-09-24T02:34:43.633Z,0
2017-09-24T02:35:24.144Z,0
2017-09-24T02:36:04.668Z,0
2017-09-24T02:36:45.200Z,0
2017-09-24T02:37:25.723Z,0
2017-09-24T02:38:06.249Z,0
2017-09-24T02:38:46.765Z,0
2017-09-24T02:39:27.305Z,0
2017-09-24T02:40:07.823Z,0
2017-09-24T02:40:48.355Z,0
2017-09-24T02:41:28.893Z,0
2017-09-24T02:42:09.415Z,0
2017-09-24T02:42:49.947Z,0
2017-09-24T02:43:30.512Z,0
2017-09-24T02:44:11.057Z,0
2017-09-24T02:44:51.589Z,0
2017-09-24T02:45:32.123Z,0
2017-09-24T02:46:12.658Z,0
2017-09-24T02:46:53.192Z,0
2017-09-24T02:47:33.724Z,0
2017-09-24T02:48:14.259Z,0
2017-09-24T02:48:54.798Z,0
2017-09-24T02:49:35.326Z,0
2017-09-24T02:50:15.856Z,0
2017-09-24T02:50:56.382Z,0
2017-09-24T02:51:37.792Z,0
2017-09-24T02:52:18.327Z,0
2017-09-24T02:52:58.854Z,0
2017-09-24T02:53:39.385Z,0
2017-09-24T02:54:19.908Z,0
2017-09-24T02:55:00.473Z,0
2017-09-24T02:55:41.013Z,0
2017-09-24T02:56:21.553Z,0
2017-09-24T02:57:02.086Z,0
2017-09-24T02:57:42.612Z,0
2017-09-24T02:58:23.140Z,0
2017-09-24T02:59:03.658Z,0
2017-09-24T02:59:44.189Z,0
2017-09-24T03:00:24.722Z,0
2017-09-24T03:01:05.261Z,0
2017-09-24T03:01:45.795Z,0
2017-09-24T03:02:26.661Z,0
2017-09-24T03:03:07.190Z,0
2017-09-24T03:03:47.716Z,0
2017-09-24T03:04:28.246Z,0
2017-09-24T03:05:08.779Z,0
2017-09-24T03:05:49.311Z,0
2017-09-24T03:06:29.850Z,0
2017-09-24T03:07:10.384Z,0
2017-09-24T03:07:50.927Z,0
2017-09-24T03:08:31.453Z,0
2017-09-24T03:09:11.976Z,0
2017-09-24T03:09:52.512Z,0
2017-09-24T03:10:33.042Z,0
2017-09-24T03:11:13.570Z,0
2017-09-24T03:11:54.100Z,0
2017-09-24T03:12:34.627Z,0
2017-09-24T03:13:15.338Z,0
2017-09-24T03:13:55.873Z,0
2017-09-24T03:14:36.387Z,0
2017-09-24T03:15:16.915Z,0
2017-09-24T03:15:57.453Z,0
2017-09-24T03:16:37.982Z,0
2017-09-24T03:17:18.507Z,0
2017-09-24T03:17:59.041Z,0
2017-09-24T03:18:39.576Z,0
2017-09-24T03:19:20.113Z,0
2017-09-24T03:20:00.648Z,0
2017-09-24T03:20:41.181Z,0
2017-09-24T03:21:21.791Z,0
2017-09-24T03:22:02.361Z,0
2017-09-24T03:22:42.889Z,0
2017-09-24T03:23:23.418Z,0
2017-09-24T03:24:03.947Z,0
2017-09-24T03:24:44.810Z,0
2017-09-24T03:25:25.354Z,0
2017-09-24T03:26:05.894Z,0
2017-09-24T03:26:46.461Z,0
2017-09-24T03:27:26.995Z,0
2017-09-24T03:28:07.529Z,0
2017-09-24T03:28:48.058Z,0
2017-09-24T03:29:28.595Z,0
2017-09-24T03:30:09.177Z,0
2017-09-24T03:30:49.777Z,0
2017-09-24T03:31:30.282Z,0
2017-09-24T03:32:10.819Z,0
2017-09-24T03:32:51.354Z,0
2017-09-24T03:33:31.889Z,0
2017-09-24T03:34:12.424Z,0
2017-09-24T03:34:52.956Z,0
2017-09-24T03:35:33.484Z,0
2017-09-24T03:36:14.022Z,0
2017-09-24T03:36:54.555Z,0
2017-09-24T03:37:35.090Z,0
2017-09-24T03:38:15.627Z,0
2017-09-24T03:38:56.165Z,0
2017-09-24T03:39:36.705Z,0
2017-09-24T03:40:17.242Z,0
2017-09-24T03:40:57.776Z,0
2017-09-24T03:41:38.309Z,0
2017-09-24T03:42:18.924Z,0
2017-09-24T03:42:59.458Z,0
2017-09-24T03:43:39.992Z,0
2017-09-24T03:44:20.517Z,0
2017-09-24T03:45:01.054Z,0
2017-09-24T03:45:41.598Z,0
2017-09-24T03:46:22.263Z,0
2017-09-24T03:47:02.804Z,0
2017-09-24T03:47:43.332Z,0
2017-09-24T03:48:24.140Z,0
2017-09-24T03:49:04.664Z,0
2017-09-24T03:49:45.200Z,0
2017-09-24T03:50:25.727Z,0
2017-09-24T03:51:06.260Z,0
2017-09-24T03:51:46.789Z,0
2017-09-24T03:52:27.319Z,0
2017-09-24T03:53:07.848Z,0
2017-09-24T03:53:48.380Z,0
2017-09-24T03:54:28.967Z,0
2017-09-24T03:55:09.487Z,0
2017-09-24T03:55:50.031Z,0
2017-09-24T03:56:30.548Z,0
2017-09-24T03:57:11.079Z,0
2017-09-24T03:57:51.606Z,0
2017-09-24T03:58:32.141Z,0
2017-09-24T03:59:12.681Z,0
2017-09-24T03:59:53.215Z,0
2017-09-24T04:00:33.750Z,0
2017-09-24T04:01:14.282Z,0
2017-09-24T04:01:54.825Z,0
2017-09-24T04:02:35.352Z,0
2017-09-24T04:03:15.885Z,0
2017-09-24T04:03:57.106Z,0
2017-09-24T04:04:37.638Z,0
2017-09-24T04:05:18.173Z,0
2017-09-24T04:05:58.705Z,0
2017-09-24T04:06:39.241Z,0
2017-09-24T04:07:19.766Z,0
2017-09-24T04:08:00.289Z,0
2017-09-24T04:08:40.860Z,0
2017-09-24T04:09:21.395Z,0
2017-09-24T04:10:01.932Z,0
2017-09-24T04:10:42.457Z,0
2017-09-24T04:11:22.993Z,0
2017-09-24T04:12:03.514Z,0
2017-09-24T04:12:44.054Z,0
2017-09-24T04:13:24.582Z,0
2017-09-24T04:14:05.115Z,0
2017-09-24T04:14:45.641Z,0
2017-09-24T04:15:26.176Z,0
2017-09-24T04:16:07.012Z,0
2017-09-24T04:16:47.555Z,0
2017-09-24T04:17:28.091Z,0
2017-09-24T04:18:08.630Z,0
2017-09-24T04:18:49.170Z,0
2017-09-24T04:19:29.693Z,0
2017-09-24T04:20:10.210Z,0
2017-09-24T04:20:50.731Z,0
2017-09-24T04:21:31.259Z,0
2017-09-24T04:22:11.789Z,0
2017-09-24T04:22:52.320Z,0
2017-09-24T04:23:32.858Z,0
2017-09-24T04:24:13.378Z,0
2017-09-24T04:24:54.471Z,0
2017-09-24T04:25:35.006Z,0
2017-09-24T04:26:15.538Z,0
2017-09-24T04:26:56.069Z,0
2017-09-24T04:27:36.601Z,0
2017-09-24T04:28:17.130Z,0
2017-09-24T04:28:57.664Z,0
2017-09-24T04:29:38.202Z,0
2017-09-24T04:30:18.743Z,0
2017-09-24T04:30:59.274Z,0
2017-09-24T04:31:39.802Z,0
2017-09-24T04:32:20.330Z,0
2017-09-24T04:33:01.151Z,0
2017-09-24T04:33:41.678Z,0
2017-09-24T04:34:22.213Z,0
2017-09-24T04:35:02.743Z,0
2017-09-24T04:35:43.289Z,0
2017-09-24T04:36:23.809Z,0
2017-09-24T04:37:04.351Z,0
2017-09-24T04:37:44.885Z,0
2017-09-24T04:38:25.405Z,0
2017-09-24T04:39:05.938Z,0
2017-09-24T04:39:46.482Z,0
2017-09-24T04:40:27.004Z,0
2017-09-24T04:41:07.544Z,0
2017-09-24T04:41:48.069Z,0
2017-09-24T04:42:28.655Z,0
2017-09-24T04:43:09.186Z,0
2017-09-24T04:43:49.713Z,0
2017-09-24T04:44:30.249Z,0
2017-09-24T04:45:10.788Z,0
2017-09-24T04:45:51.323Z,0
2017-09-24T04:46:31.861Z,0
2017-09-24T04:47:12.392Z,0
2017-09-24T04:47:52.924Z,0
2017-09-24T04:48:33.456Z,0
2017-09-24T04:49:13.996Z,0
2017-09-24T04:49:54.522Z,0
2017-09-24T04:50:35.064Z,0
2017-09-24T04:51:15.600Z,0
2017-09-24T04:51:56.125Z,0
2017-09-24T04:52:36.661Z,0
2017-09-24T04:53:17.200Z,0
2017-09-24T04:53:57.743Z,0
2017-09-24T04:54:38.287Z,0
2017-09-24T04:55:18.884Z,0
2017-09-24T04:55:59.480Z,0
2017-09-24T04:56:40.024Z,0
2017-09-24T04:57:20.549Z,0
2017-09-24T04:58:01.078Z,0
2017-09-24T04:58:41.607Z,0
2017-09-24T04:59:22.135Z,0
2017-09-24T05:00:02.671Z,0
2017-09-24T05:00:43.205Z,0
2017-09-24T05:01:23.744Z,4
2017-09-24T05:02:04.281Z,4
2017-09-24T05:02:45.065Z,4
2017-09-24T05:03:25.597Z,4
2017-09-24T05:04:06.132Z,0
2017-09-24T05:04:46.665Z,4
2017-09-24T05:05:27.192Z,4
2017-09-24T05:06:07.730Z,4
2017-09-24T05:06:48.264Z,4
2017-09-24T05:07:28.801Z,8
2017-09-24T05:08:09.333Z,8
2017-09-24T05:08:49.864Z,8
2017-09-24T05:09:30.403Z,8
2017-09-24T05:10:10.935Z,8
2017-09-24T05:10:51.463Z,12
2017-09-24T05:11:32.008Z,12
2017-09-24T05:14:01.709Z,20
2017-09-24T05:14:42.249Z,20
2017-09-24T05:15:22.781Z,20
2017-09-24T05:16:03.317Z,24
2017-09-24T05:16:43.848Z,24
2017-09-24T05:17:24.381Z,24
2017-09-24T05:18:04.908Z,28
2017-09-24T05:18:45.440Z,28
2017-09-24T05:19:25.974Z,32
2017-09-24T05:20:06.507Z,36
2017-09-24T05:20:47.038Z,32
2017-09-24T05:21:27.933Z,32
2017-09-24T05:22:08.528Z,36
2017-09-24T05:22:49.057Z,40
2017-09-24T05:23:29.591Z,40
2017-09-24T05:24:10.125Z,40
2017-09-24T05:24:50.654Z,44
2017-09-24T05:25:31.191Z,48
2017-09-24T05:26:11.733Z,48
2017-09-24T05:26:52.272Z,52
2017-09-24T05:27:32.808Z,56
2017-09-24T05:28:13.344Z,56
2017-09-24T05:28:53.867Z,64
2017-09-24T05:29:34.410Z,68
2017-09-24T05:30:14.979Z,72
2017-09-24T05:30:55.599Z,72
2017-09-24T05:31:36.237Z,80
2017-09-24T05:32:16.766Z,84
2017-09-24T05:32:57.280Z,88
2017-09-24T05:33:37.824Z,88
2017-09-24T05:34:18.472Z,92
2017-09-24T05:34:59.141Z,96
2017-09-24T05:35:39.931Z,96
2017-09-24T05:36:20.500Z,96
2017-09-24T05:37:01.053Z,100
2017-09-24T05:37:41.628Z,100
2017-09-24T05:38:22.134Z,104
2017-09-24T05:39:02.651Z,108
2017-09-24T05:39:43.315Z,112
2017-09-24T05:40:23.929Z,116
2017-09-24T05:41:04.656Z,120
2017-09-24T05:41:45.165Z,124
2017-09-24T05:42:25.737Z,128
2017-09-24T05:43:06.326Z,132
2017-09-24T05:43:46.922Z,132
2017-09-24T05:44:27.441Z,140
2017-09-24T05:45:08.252Z,148
2017-09-24T05:45:48.901Z,152
2017-09-24T05:46:29.486Z,160
2017-09-24T05:47:10.012Z,164
2017-09-24T05:47:50.610Z,172
2017-09-24T05:48:31.138Z,180
2017-09-24T05:49:11.765Z,188
2017-09-24T05:49:52.443Z,196
2017-09-24T05:50:32.997Z,200
2017-09-24T05:51:13.526Z,204
2017-09-24T05:51:54.200Z,208
2017-09-24T05:52:34.872Z,216
2017-09-24T05:53:15.407Z,224
2017-09-24T05:53:56.023Z,232
2017-09-24T05:54:36.528Z,240
2017-09-24T05:55:17.124Z,252
2017-09-24T05:55:57.649Z,260
2017-09-24T05:56:38.181Z,264
2017-09-24T05:57:18.756Z,272
2017-09-24T05:57:59.387Z,280
2017-09-24T05:58:39.898Z,288
2017-09-24T05:59:20.401Z,300
2017-09-24T06:00:00.910Z,316
2017-09-24T06:00:41.522Z,336
2017-09-24T06:01:22.016Z,360
2017-09-24T06:02:02.550Z,380
2017-09-24T06:02:43.068Z,404
2017-09-24T06:03:23.649Z,420
2017-09-24T06:04:04.201Z,424
2017-09-24T06:04:44.768Z,420
2017-09-24T06:05:25.277Z,420
2017-09-24T06:06:05.805Z,420
2017-09-24T06:06:46.488Z,412
2017-09-24T06:07:27.130Z,404
2017-09-24T06:08:07.752Z,404
2017-09-24T06:08:48.263Z,428
2017-09-24T06:09:28.767Z,452
2017-09-24T06:10:09.348Z,472
2017-09-24T06:10:49.893Z,476
2017-09-24T06:11:31.451Z,464
2017-09-24T06:12:14.386Z,456
2017-09-24T06:12:55.341Z,456
2017-09-24T06:13:35.897Z,468
2017-09-24T06:14:16.409Z,480
2017-09-24T06:14:56.941Z,484
2017-09-24T06:15:37.478Z,496
2017-09-24T06:16:18.009Z,528
2017-09-24T06:16:58.548Z,556
2017-09-24T06:17:39.088Z,568
2017-09-24T06:18:19.671Z,588
2017-09-24T06:19:00.202Z,592
2017-09-24T06:19:40.735Z,588
2017-09-24T06:20:21.267Z,596
2017-09-24T06:21:01.819Z,628
2017-09-24T06:21:42.328Z,680
2017-09-24T06:22:22.859Z,720
2017-09-24T06:23:03.404Z,724
2017-09-24T06:23:45.705Z,728
2017-09-24T06:24:26.241Z,736
2017-09-24T06:25:06.776Z,760
2017-09-24T06:25:47.293Z,780
2017-09-24T06:26:27.813Z,792
2017-09-24T06:27:08.360Z,820
2017-09-24T06:27:48.862Z,856
2017-09-24T06:28:29.397Z,872
2017-09-24T06:29:09.921Z,868
2017-09-24T06:29:50.448Z,872
2017-09-24T06:30:30.992Z,920
2017-09-24T06:31:11.532Z,976
2017-09-24T06:31:52.066Z,1000
2017-09-24T06:32:32.594Z,1000
2017-09-24T06:33:13.130Z,1012
2017-09-24T06:33:53.667Z,1032
2017-09-24T06:34:34.202Z,1060
2017-09-24T06:35:14.721Z,1080
2017-09-24T06:35:55.248Z,1104
2017-09-24T06:36:35.784Z,1120
2017-09-24T06:37:16.317Z,1116
2017-09-24T06:37:56.853Z,1104
2017-09-24T06:38:37.380Z,1096
2017-09-24T06:39:17.917Z,1060
2017-09-24T06:39:58.466Z,1044
2017-09-24T06:40:38.987Z,1084
2017-09-24T06:41:19.519Z,1088
2017-09-24T06:42:00.056Z,1092
2017-09-24T06:42:40.600Z,1092
2017-09-24T06:43:21.127Z,1076
2017-09-24T06:44:01.661Z,1120
2017-09-24T06:44:42.188Z,1128
2017-09-24T06:45:22.724Z,1144
2017-09-24T06:46:03.259Z,1168
2017-09-24T06:46:43.861Z,1172
2017-09-24T06:47:24.385Z,1140
2017-09-24T06:48:04.913Z,1092
2017-09-24T06:48:45.429Z,1044
2017-09-24T06:49:25.952Z,968
2017-09-24T06:50:06.488Z,904
2017-09-24T06:50:47.134Z,864
2017-09-24T06:51:27.670Z,840
2017-09-24T06:52:08.193Z,808
2017-09-24T06:52:48.745Z,780
2017-09-24T06:53:29.264Z,756
2017-09-24T06:54:09.795Z,732
2017-09-24T06:54:50.309Z,712
2017-09-24T06:55:30.843Z,672
2017-09-24T06:56:11.355Z,648
2017-09-24T06:56:51.869Z,620
2017-09-24T06:57:32.403Z,604
2017-09-24T06:58:12.925Z,596
2017-09-24T06:58:53.441Z,592
2017-09-24T06:59:33.974Z,592
2017-09-24T07:00:14.498Z,604
2017-09-24T07:00:55.027Z,628
2017-09-24T07:01:35.594Z,636
2017-09-24T07:02:16.127Z,656
2017-09-24T07:02:56.643Z,668
2017-09-24T07:03:37.173Z,684
2017-09-24T07:04:17.708Z,696
2017-09-24T07:04:58.241Z,696
2017-09-24T07:05:38.757Z,704
2017-09-24T07:06:19.284Z,716
2017-09-24T07:06:59.825Z,736
2017-09-24T07:07:40.355Z,768
2017-09-24T07:08:20.901Z,800
2017-09-24T07:09:01.442Z,832
2017-09-24T07:09:41.972Z,856
2017-09-24T07:10:22.493Z,884
2017-09-24T07:11:03.028Z,884
2017-09-24T07:11:43.557Z,888
2017-09-24T07:12:24.095Z,884
2017-09-24T07:13:04.625Z,884
2017-09-24T07:13:45.157Z,892
2017-09-24T07:14:25.703Z,888
2017-09-24T07:15:06.235Z,876
2017-09-24T07:15:46.776Z,868
2017-09-24T07:16:27.305Z,868
2017-09-24T07:17:07.815Z,856
2017-09-24T07:17:48.345Z,856
2017-09-24T07:18:28.860Z,872
2017-09-24T07:19:09.390Z,896
2017-09-24T07:19:49.917Z,912
2017-09-24T07:20:30.574Z,932
2017-09-24T07:21:11.104Z,972
2017-09-24T07:21:51.637Z,1000
2017-09-24T07:22:32.175Z,1024
2017-09-24T07:23:12.710Z,1044
2017-09-24T07:23:53.245Z,1036
2017-09-24T07:24:33.776Z,1024
2017-09-24T07:25:14.298Z,980
2017-09-24T07:25:54.812Z,972
2017-09-24T07:26:35.363Z,956
2017-09-24T07:27:15.884Z,964
2017-09-24T07:27:56.394Z,972
2017-09-24T07:28:36.915Z,992
2017-09-24T07:29:17.464Z,1036
2017-09-24T07:29:58.030Z,1072
2017-09-24T07:30:38.559Z,1144
2017-09-24T07:31:19.149Z,1168
2017-09-24T07:31:59.666Z,1200
2017-09-24T07:32:40.217Z,1188
2017-09-24T07:33:20.787Z,1192
2017-09-24T07:34:01.276Z,1192
2017-09-24T07:34:41.821Z,1192
2017-09-24T07:35:22.352Z,1200
2017-09-24T07:36:02.873Z,1192
2017-09-24T07:36:43.449Z,1196
2017-09-24T07:37:23.927Z,1168
2017-09-24T07:38:04.477Z,1160
2017-09-24T07:38:44.953Z,1156
2017-09-24T07:39:25.453Z,1156
2017-09-24T07:40:05.972Z,1152
2017-09-24T07:40:46.512Z,1164
2017-09-24T07:41:27.033Z,1184
2017-09-24T07:42:07.553Z,1196
2017-09-24T07:42:48.072Z,1196
2017-09-24T07:43:28.620Z,1196
2017-09-24T07:44:09.150Z,1196
2017-09-24T07:44:49.672Z,1220
2017-09-24T07:45:30.187Z,1252
2017-09-24T07:46:10.703Z,1304
2017-09-24T07:46:51.231Z,1340
2017-09-24T07:47:31.916Z,1360
2017-09-24T07:48:12.395Z,1380
2017-09-24T07:48:52.924Z,1400
2017-09-24T07:49:33.445Z,1412
2017-09-24T07:50:13.968Z,1436
2017-09-24T07:50:54.575Z,1472
2017-09-24T07:51:35.079Z,1524
2017-09-24T07:52:15.602Z,1568
2017-09-24T07:52:56.124Z,1580
2017-09-24T07:53:36.619Z,1640
2017-09-24T07:54:17.246Z,1696
2017-09-24T07:54:57.770Z,1744
2017-09-24T07:55:38.291Z,1792
2017-09-24T07:56:18.825Z,1856
2017-09-24T07:56:59.342Z,1904
2017-09-24T07:57:39.871Z,1952
2017-09-24T07:58:20.402Z,1996
2017-09-24T07:59:00.914Z,2008
2017-09-24T08:01:30.354Z,2016
2017-09-24T08:02:10.889Z,1972
2017-09-24T08:02:51.423Z,1996
2017-09-24T08:03:31.942Z,2068
2017-09-24T08:04:12.499Z,2124
2017-09-24T08:04:53.036Z,2144
2017-09-24T08:05:33.576Z,2180
2017-09-24T08:06:14.102Z,2104
2017-09-24T08:06:54.634Z,2088
2017-09-24T08:07:35.187Z,2092
2017-09-24T08:08:15.723Z,2108
2017-09-24T08:08:56.259Z,2116
2017-09-24T08:09:36.812Z,2104
2017-09-24T08:10:17.922Z,2068
2017-09-24T08:10:58.498Z,2036
2017-09-24T08:11:39.059Z,2020
2017-09-24T08:12:19.694Z,2016
2017-09-24T08:13:00.198Z,2032
2017-09-24T08:13:40.719Z,2060
2017-09-24T08:14:24.894Z,2056
2017-09-24T08:15:14.286Z,2024
2017-09-24T08:15:54.817Z,1972
2017-09-24T08:16:35.350Z,1928
2017-09-24T08:17:16.197Z,1876
2017-09-24T08:17:56.976Z,1828
2017-09-24T08:18:38.130Z,1820
2017-09-24T08:20:38.721Z,1900
2017-09-24T08:21:19.316Z,1940
2017-09-24T08:21:59.902Z,2008
2017-09-24T08:22:40.490Z,2072
2017-09-24T08:23:21.043Z,2132
2017-09-24T08:24:01.622Z,2180
2017-09-24T08:24:42.122Z,2192
2017-09-24T08:25:22.648Z,2184
2017-09-24T08:26:03.187Z,2184
2017-09-24T08:26:44.704Z,2220
2017-09-24T08:27:25.611Z,2228
2017-09-24T08:28:06.219Z,2204
2017-09-24T08:28:46.729Z,2212
2017-09-24T08:29:33.620Z,2200
2017-09-24T08:30:14.460Z,2208
2017-09-24T08:30:55.190Z,2224
2017-09-24T08:31:38.390Z,2264
2017-09-24T08:32:20.381Z,2344
2017-09-24T08:33:02.708Z,2420
2017-09-24T08:33:44.043Z,2480
2017-09-24T08:34:24.614Z,2528
2017-09-24T08:35:05.340Z,2548
2017-09-24T08:35:45.875Z,2528
2017-09-24T08:36:26.437Z,2476
2017-09-24T08:37:06.941Z,2440
2017-09-24T08:37:47.588Z,2388
2017-09-24T08:38:28.137Z,2332
2017-09-24T08:39:08.621Z,2288
2017-09-24T08:39:49.274Z,2236
2017-09-24T08:40:29.805Z,2188
2017-09-24T08:41:10.339Z,2164
2017-09-24T08:41:50.866Z,2136
2017-09-24T08:42:31.396Z,2096
2017-09-24T08:43:11.941Z,2096
2017-09-24T08:43:52.578Z,2096
2017-09-24T08:44:33.340Z,2112
2017-09-24T08:45:15.906Z,2140
2017-09-24T08:45:56.502Z,2200
2017-09-24T08:46:37.242Z,2248
2017-09-24T08:47:18.252Z,2272
2017-09-24T08:47:58.957Z,2312
2017-09-24T08:48:39.535Z,2348
2017-09-24T08:49:20.165Z,2384
2017-09-24T08:51:54.945Z,2600
2017-09-24T08:52:35.464Z,2604
2017-09-24T08:53:15.991Z,2644
2017-09-24T08:53:56.516Z,2704
2017-09-24T08:54:37.175Z,2756
2017-09-24T08:55:17.948Z,2812
2017-09-24T08:55:58.567Z,2812
2017-09-24T08:56:39.497Z,2844
2017-09-24T08:57:20.293Z,2880
2017-09-24T08:58:01.585Z,2924
2017-09-24T08:58:41.897Z,2980
2017-09-24T08:59:22.814Z,3036
2017-09-24T09:00:03.485Z,3080
2017-09-24T09:00:44.290Z,3088
2017-09-24T09:01:24.898Z,3076
2017-09-24T09:02:05.466Z,3168
2017-09-24T09:02:46.001Z,3244
2017-09-24T09:03:26.540Z,3304
2017-09-24T09:04:07.314Z,3360
2017-09-24T09:04:48.477Z,3404
2017-09-24T09:05:29.380Z,3468
2017-09-24T09:06:10.171Z,3476
2017-09-24T09:06:50.789Z,3444
2017-09-24T09:07:31.326Z,3444
2017-09-24T09:08:11.859Z,3512
2017-09-24T09:08:52.630Z,3520
2017-09-24T09:09:33.264Z,3464
2017-09-24T09:10:13.905Z,3492
2017-09-24T09:10:54.433Z,3584
2017-09-24T09:11:35.132Z,3728
2017-09-24T09:12:15.673Z,3832
2017-09-24T09:12:56.322Z,3912
2017-09-24T09:13:37.000Z,3952
2017-09-24T09:14:17.713Z,3992
2017-09-24T09:14:58.218Z,4076
2017-09-24T09:15:38.989Z,4156
2017-09-24T09:16:19.559Z,4072
2017-09-24T09:17:00.083Z,4080
2017-09-24T09:17:40.608Z,4248
2017-09-24T09:18:21.409Z,4360
2017-09-24T09:19:01.950Z,4424
2017-09-24T09:19:42.470Z,4460
2017-09-24T09:20:22.999Z,4556
2017-09-24T09:21:03.718Z,4612
2017-09-24T09:21:44.421Z,4620
2017-09-24T09:22:25.002Z,4588
2017-09-24T09:23:05.530Z,4640
2017-09-24T09:23:46.091Z,4732
2017-09-24T09:24:26.626Z,4860
2017-09-24T09:25:07.145Z,4932
2017-09-24T09:25:47.677Z,5012
2017-09-24T09:26:28.208Z,5164
2017-09-24T09:27:08.748Z,5184
2017-09-24T09:27:49.338Z,5232
2017-09-24T09:28:29.893Z,5260
2017-09-24T09:29:10.431Z,5280
2017-09-24T09:29:51.028Z,5224
2017-09-24T09:30:32.640Z,5300
2017-09-24T09:31:13.158Z,5500
2017-09-24T09:31:53.669Z,5680
2017-09-24T09:32:34.207Z,5792
2017-09-24T09:33:14.729Z,5824
2017-09-24T09:33:55.241Z,6140
2017-09-24T09:34:35.757Z,6400
2017-09-24T09:35:16.444Z,6536
2017-09-24T09:35:56.998Z,6624
2017-09-24T09:36:37.518Z,6808
2017-09-24T09:37:18.051Z,7092
2017-09-24T09:37:58.743Z,7376
2017-09-24T09:38:39.256Z,7452
2017-09-24T09:39:20.027Z,7520
2017-09-24T09:40:00.555Z,7704
2017-09-24T09:40:41.085Z,7908
2017-09-24T09:41:21.846Z,8228
2017-09-24T09:42:02.374Z,8560
2017-09-24T09:42:42.922Z,8828
2017-09-24T09:43:23.460Z,8972
2017-09-24T09:44:03.988Z,9016
2017-09-24T09:44:44.542Z,9076
2017-09-24T09:45:25.096Z,9148